CRC2 weather

Fredericton (RCMP) Heliport
Fredericton, New Brunswick, Canada

Public forecast

Using degrees Celsius for public forecast. Weather courtesy of forecast.io.

Closest aviation weather report (METAR) to Fredericton (RCMP) Heliport

Closest report is Fredericton Airport, 6.6 nm (12.2 km) SE. Retrieved 2019/10/22 03:11 UTC (12 minutes ago):

CYFC 220311Z AUTO 31002KT 9SM CLR 02/01 A3018 RMK SLP223

Closest aviation forecast (TAF) to Fredericton (RCMP) Heliport

Closest forecast is Fredericton Airport, 6.6 nm (12.2 km) SE. Retrieved 2019-10-22 00:42 UTC (3 hours ago):

TAF CYFC 212338Z 2200/2212 VRB03KT P6SM SKC FM220400 VRB03KT 6SM BR FEW015 FM220700 VRB03KT 6SM BR SCT008 TEMPO 2207/2212 2SM BR BKN008 PROB30 2209/2212 1/2SM FG VV003 RMK FCST BASED ON AUTO OBS NXT FCST BY 220600Z